createdAt,value
2023-02-11T00:02:00.437Z,102000.20
2023-02-11T00:04:34.990Z,101993.80
2023-02-11T00:07:08.608Z,101983.00
2023-02-11T00:09:43.330Z,101982.40
2023-02-11T00:12:19.741Z,101972.60
2023-02-11T00:14:54.109Z,101973.00
2023-02-11T00:17:28.017Z,101972.20
2023-02-11T00:20:01.829Z,101971.20
2023-02-11T00:22:36.654Z,101962.60
2023-02-11T00:25:11.382Z,101957.60
2023-02-11T00:27:45.196Z,101957.00
2023-02-11T00:30:19.975Z,101948.60
2023-02-11T00:32:53.730Z,101954.00
2023-02-11T00:35:27.501Z,101950.00
2023-02-11T00:38:01.703Z,101950.00
2023-02-11T00:40:35.544Z,101949.20
2023-02-11T00:43:10.710Z,101941.60
2023-02-11T00:45:44.654Z,101941.60
2023-02-11T00:48:18.909Z,101934.60
2023-02-11T00:50:52.709Z,101939.60
2023-02-11T00:53:26.976Z,101933.80
2023-02-11T00:56:02.096Z,101922.00
2023-02-11T00:58:36.635Z,101918.80
2023-02-11T01:01:10.805Z,101915.40
2023-02-11T01:03:45.204Z,101911.40
2023-02-11T01:06:19.773Z,101899.40
2023-02-11T01:08:53.978Z,101902.60
2023-02-11T01:11:28.123Z,101896.20
2023-02-11T01:14:02.119Z,101899.20
2023-02-11T01:16:36.878Z,101893.20
2023-02-11T01:19:10.955Z,101893.00
2023-02-11T01:21:45.048Z,101889.60
2023-02-11T01:24:18.788Z,101884.80
2023-02-11T01:26:52.862Z,101876.80
2023-02-11T01:29:27.189Z,101868.80
2023-02-11T01:32:02.782Z,101868.40
2023-02-11T01:34:36.714Z,101866.40
2023-02-11T01:37:10.816Z,101866.80
2023-02-11T01:39:44.669Z,101866.60
2023-02-11T01:42:23.298Z,101859.60
2023-02-11T01:45:02.297Z,101852.60
2023-02-11T01:47:36.356Z,101845.20
2023-02-11T01:50:12.639Z,101836.20
2023-02-11T01:52:48.039Z,101829.80
2023-02-11T01:55:40.839Z,101820.80
2023-02-11T01:58:14.789Z,101825.60
2023-02-11T02:00:49.950Z,101829.00
2023-02-11T02:03:25.880Z,101832.60
2023-02-11T02:06:12.173Z,101824.00
2023-02-11T02:08:54.770Z,101808.60
2023-02-11T02:11:29.242Z,101802.00
2023-02-11T02:14:03.123Z,101803.60
2023-02-11T02:16:39.122Z,101801.60
2023-02-11T02:19:54.977Z,101798.60
2023-02-11T02:23:17.488Z,101786.20
2023-02-11T02:26:28.309Z,101773.40
2023-02-11T02:30:13.945Z,101767.60
2023-02-11T02:33:22.520Z,101780.20
2023-02-11T02:36:10.557Z,101765.20
2023-02-11T02:38:54.238Z,101754.20
2023-02-11T02:41:34.061Z,101743.40
2023-02-11T02:44:08.527Z,101748.20
2023-02-11T02:46:42.381Z,101745.00
2023-02-11T02:49:19.168Z,101726.60
2023-02-11T02:52:17.432Z,101720.80
2023-02-11T02:55:19.182Z,101720.60
2023-02-11T02:58:19.306Z,101723.20
2023-02-11T03:01:05.678Z,101720.20
2023-02-11T03:03:53.479Z,101708.40
2023-02-11T03:06:35.451Z,101697.20
2023-02-11T03:09:17.527Z,101694.80
2023-02-11T03:11:51.641Z,101693.40
2023-02-11T03:14:30.274Z,101703.00
2023-02-11T03:17:09.077Z,101695.40
2023-02-11T03:19:47.697Z,101702.80
2023-02-11T03:22:33.851Z,101717.40
2023-02-11T03:25:10.010Z,101712.40
2023-02-11T03:27:53.839Z,101711.40
2023-02-11T03:30:36.301Z,101708.60
2023-02-11T03:33:26.193Z,101704.00
2023-02-11T03:36:04.707Z,101709.20
2023-02-11T03:38:46.062Z,101706.80
2023-02-11T03:41:25.014Z,101708.80
2023-02-11T03:44:02.640Z,101712.80
2023-02-11T03:46:41.747Z,101707.00
2023-02-11T03:49:20.111Z,101699.20
2023-02-11T03:51:57.068Z,101694.00
2023-02-11T03:54:34.326Z,101684.20
2023-02-11T03:57:09.176Z,101685.00
2023-02-11T03:59:57.700Z,101680.40
2023-02-11T04:02:36.135Z,101672.00
2023-02-11T04:05:14.399Z,101667.00
2023-02-11T04:07:48.175Z,101667.00
2023-02-11T04:10:22.576Z,101666.00
2023-02-11T04:12:56.441Z,101664.40
2023-02-11T04:15:30.365Z,101657.80
2023-02-11T04:18:04.686Z,101642.00
2023-02-11T04:20:38.697Z,101638.40
2023-02-11T04:23:12.607Z,101635.80
2023-02-11T04:25:46.827Z,101625.20
2023-02-11T04:28:21.015Z,101619.20
2023-02-11T04:30:55.453Z,101619.00
2023-02-11T04:33:29.467Z,101612.80
2023-02-11T04:36:03.177Z,101611.80
2023-02-11T04:38:37.395Z,101611.60
2023-02-11T04:41:11.394Z,101621.40
2023-02-11T04:43:45.127Z,101624.40
2023-02-11T04:46:19.105Z,101616.80
2023-02-11T04:48:53.312Z,101618.20
2023-02-11T04:51:27.121Z,101612.80
2023-02-11T04:54:00.952Z,101605.60
2023-02-11T04:56:34.824Z,101607.00
2023-02-11T04:59:09.894Z,101600.20
2023-02-11T05:01:43.891Z,101593.00
2023-02-11T05:04:18.578Z,101589.80
2023-02-11T05:06:52.943Z,101578.60
2023-02-11T05:09:26.892Z,101577.40
2023-02-11T05:12:00.650Z,101566.80
2023-02-11T05:14:34.560Z,101562.60
2023-02-11T05:17:08.674Z,101577.00
2023-02-11T05:19:42.671Z,101568.20
2023-02-11T05:22:16.650Z,101558.00
2023-02-11T05:24:50.548Z,101553.20
2023-02-11T05:27:24.586Z,101551.60
2023-02-11T05:29:58.421Z,101553.20
2023-02-11T05:32:32.399Z,101554.60
2023-02-11T05:35:07.018Z,101556.60
2023-02-11T05:37:41.184Z,101551.40
2023-02-11T05:40:16.661Z,101558.20
2023-02-11T05:42:50.457Z,101551.60
2023-02-11T05:45:24.354Z,101563.40
2023-02-11T05:47:58.366Z,101555.40
2023-02-11T05:50:32.550Z,101552.80
2023-02-11T05:53:06.946Z,101547.40
2023-02-11T05:55:41.056Z,101546.00
2023-02-11T05:58:14.872Z,101550.40
2023-02-11T06:00:48.770Z,101552.20
2023-02-11T06:03:22.755Z,101556.80
2023-02-11T06:05:56.846Z,101549.80
2023-02-11T06:08:31.044Z,101543.20
2023-02-11T06:11:05.011Z,101548.60
2023-02-11T06:13:39.788Z,101541.40
2023-02-11T06:16:13.601Z,101547.20
2023-02-11T06:18:47.444Z,101537.40
2023-02-11T06:21:21.263Z,101540.00
2023-02-11T06:23:55.186Z,101538.80
2023-02-11T06:26:29.181Z,101537.00
2023-02-11T06:29:04.045Z,101531.20
2023-02-11T06:31:40.139Z,101532.20
2023-02-11T06:34:14.335Z,101531.20
2023-02-11T06:36:48.225Z,101536.00
2023-02-11T06:39:22.068Z,101523.40
2023-02-11T06:41:55.933Z,101527.40
2023-02-11T06:44:29.778Z,101523.20
2023-02-11T06:47:03.694Z,101523.20
2023-02-11T06:49:37.574Z,101524.20
2023-02-11T06:52:11.497Z,101522.20
2023-02-11T06:54:45.273Z,101518.20
2023-02-11T06:57:18.960Z,101521.20
2023-02-11T06:59:53.333Z,101526.00
2023-02-11T07:02:28.894Z,101525.20
2023-02-11T07:05:02.603Z,101515.00
2023-02-11T07:07:36.608Z,101518.20
2023-02-11T07:10:12.688Z,101513.60
2023-02-11T07:12:46.573Z,101502.20
2023-02-11T07:15:21.360Z,101496.40
2023-02-11T07:17:55.165Z,101487.40
2023-02-11T07:20:29.851Z,101489.80
2023-02-11T07:23:03.827Z,101504.00
2023-02-11T07:25:38.128Z,101514.60
2023-02-11T07:28:12.038Z,101512.00
2023-02-11T07:30:45.746Z,101504.60
2023-02-11T07:33:19.549Z,101499.20
2023-02-11T07:35:53.448Z,101494.60
2023-02-11T07:38:27.655Z,101497.20
2023-02-11T07:41:05.619Z,101502.40
2023-02-11T07:43:40.874Z,101502.80
2023-02-11T07:46:19.853Z,101504.80
2023-02-11T07:48:55.126Z,101496.40
2023-02-11T07:51:32.813Z,101498.60
2023-02-11T07:54:07.540Z,101498.00
2023-02-11T07:56:41.511Z,101501.60
2023-02-11T07:59:17.093Z,101502.20
2023-02-11T08:01:51.677Z,101500.00
2023-02-11T08:04:26.208Z,101497.80
2023-02-11T08:07:00.070Z,101499.80
2023-02-11T08:09:34.647Z,101499.00
2023-02-11T08:12:09.515Z,101496.60
2023-02-11T08:14:43.723Z,101503.60
2023-02-11T08:17:17.780Z,101494.80
2023-02-11T08:19:52.413Z,101490.20
2023-02-11T08:22:26.429Z,101492.80
2023-02-11T08:25:00.217Z,101489.60
2023-02-11T08:27:34.689Z,101491.80
2023-02-11T08:30:10.929Z,101500.00
2023-02-11T08:32:44.917Z,101505.20
2023-02-11T08:35:19.144Z,101496.60
2023-02-11T08:37:53.246Z,101493.00
2023-02-11T08:40:27.939Z,101486.60
2023-02-11T08:43:01.984Z,101492.60
2023-02-11T08:45:35.821Z,101479.60
2023-02-11T08:48:10.107Z,101480.20
2023-02-11T08:50:44.667Z,101478.80
2023-02-11T08:53:18.669Z,101474.40
2023-02-11T08:55:55.836Z,101472.80
2023-02-11T08:58:30.381Z,101478.60
2023-02-11T09:01:09.851Z,101478.40
2023-02-11T09:03:43.656Z,101472.60
2023-02-11T09:06:18.794Z,101463.60
2023-02-11T09:08:56.165Z,101447.00
2023-02-11T09:11:35.052Z,101457.80
2023-02-11T09:14:09.174Z,101437.00
2023-02-11T09:16:44.143Z,101438.00
2023-02-11T09:19:18.873Z,101433.60
2023-02-11T09:21:52.822Z,101442.20
2023-02-11T09:24:26.671Z,101430.80
2023-02-11T09:27:00.378Z,101435.60
2023-02-11T09:29:34.255Z,101430.40
2023-02-11T09:32:09.995Z,101419.40
2023-02-11T09:34:44.424Z,101415.40
2023-02-11T09:37:18.242Z,101413.40
2023-02-11T09:39:54.691Z,101418.20
2023-02-11T09:42:49.297Z,101422.20
2023-02-11T09:45:26.669Z,101420.60
2023-02-11T09:48:06.439Z,101420.20
2023-02-11T09:50:44.649Z,101409.00
2023-02-11T09:53:25.588Z,101402.40
2023-02-11T09:56:03.460Z,101410.00
2023-02-11T09:58:40.559Z,101401.20
2023-02-11T10:01:29.428Z,101408.40
2023-02-11T10:04:15.390Z,101417.60
2023-02-11T10:06:54.835Z,101404.80
2023-02-11T10:09:57.822Z,101396.80
2023-02-11T10:13:02.672Z,101372.60
2023-02-11T10:15:47.713Z,101381.80
2023-02-11T10:18:47.742Z,101381.60
2023-02-11T10:21:38.722Z,101374.60
2023-02-11T10:24:17.480Z,101361.80
2023-02-11T10:26:53.154Z,101327.60
2023-02-11T10:29:42.182Z,101349.40
2023-02-11T10:32:32.187Z,101347.00
2023-02-11T10:35:21.266Z,101341.60
2023-02-11T10:37:55.578Z,101353.80
2023-02-11T10:40:32.495Z,101347.60
2023-02-11T10:43:12.229Z,101354.40
2023-02-11T10:45:51.390Z,101360.00
2023-02-11T10:48:49.496Z,101342.60
2023-02-11T10:51:27.094Z,101347.80
2023-02-11T10:54:21.386Z,101349.20
2023-02-11T10:57:02.265Z,101331.80
2023-02-11T10:59:40.501Z,101335.00
2023-02-11T11:02:32.156Z,101341.00
2023-02-11T11:05:17.629Z,101336.00
2023-02-11T11:08:00.784Z,101346.20
2023-02-11T11:10:46.044Z,101355.00
2023-02-11T11:13:33.504Z,101367.40
2023-02-11T11:16:29.818Z,101362.40
2023-02-11T11:19:26.691Z,101359.00
2023-02-11T11:22:00.788Z,101349.20
2023-02-11T11:24:46.800Z,101344.60
2023-02-11T11:27:27.254Z,101341.00
2023-02-11T11:30:03.382Z,101347.80
2023-02-11T11:32:39.963Z,101348.60
2023-02-11T11:35:28.638Z,101338.20
2023-02-11T11:38:06.747Z,101341.00
2023-02-11T11:40:41.286Z,101338.00
2023-02-11T11:43:24.913Z,101331.80
2023-02-11T11:46:02.963Z,101338.80
2023-02-11T11:48:41.295Z,101343.40
2023-02-11T11:51:17.385Z,101346.40
2023-02-11T11:54:01.243Z,101341.00
2023-02-11T11:56:41.469Z,101341.40
2023-02-11T11:59:17.307Z,101332.00
2023-02-11T12:02:13.214Z,101324.20
2023-02-11T12:05:05.299Z,101320.20
2023-02-11T12:07:56.773Z,101312.20
2023-02-11T12:10:53.641Z,101307.60
2023-02-11T12:13:46.785Z,101304.80
2023-02-11T12:16:37.379Z,101310.60
2023-02-11T12:19:55.128Z,101299.60
2023-02-11T12:22:50.959Z,101291.20
2023-02-11T12:25:36.409Z,101297.20
2023-02-11T12:28:31.008Z,101292.00
2023-02-11T12:31:26.126Z,101295.80
2023-02-11T12:35:05.186Z,101291.40
2023-02-11T12:37:59.811Z,101277.40
2023-02-11T12:40:45.395Z,101264.80
2023-02-11T12:43:31.559Z,101257.80
2023-02-11T12:46:39.714Z,101250.40
2023-02-11T12:50:02.102Z,101259.80
2023-02-11T12:52:54.826Z,101265.20
2023-02-11T12:55:37.070Z,101269.00
2023-02-11T12:58:29.718Z,101269.60
2023-02-11T13:01:17.286Z,101277.60
2023-02-11T13:04:03.824Z,101283.20
2023-02-11T13:06:45.966Z,101271.40
2023-02-11T13:09:27.808Z,101269.40
2023-02-11T13:12:29.033Z,101268.00
2023-02-11T13:15:08.167Z,101266.60
2023-02-11T13:17:53.460Z,101260.60
2023-02-11T13:20:41.693Z,101267.20
2023-02-11T13:23:36.180Z,101270.40
2023-02-11T13:26:17.958Z,101271.00
2023-02-11T13:28:58.568Z,101262.00
2023-02-11T13:31:32.492Z,101266.80
2023-02-11T13:34:24.025Z,101269.20
2023-02-11T13:37:02.003Z,101257.60
2023-02-11T13:39:35.783Z,101246.60
2023-02-11T13:42:19.134Z,101254.80
2023-02-11T13:44:53.364Z,101257.00
2023-02-11T13:47:37.896Z,101264.00
2023-02-11T13:50:26.659Z,101263.60
2023-02-11T13:53:07.428Z,101258.40
2023-02-11T13:55:43.888Z,101259.80
2023-02-11T13:58:47.907Z,101259.60
2023-02-11T14:02:13.943Z,101256.20
2023-02-11T14:05:42.702Z,101259.00
2023-02-11T14:08:46.116Z,101267.00
2023-02-11T14:11:55.403Z,101278.40
2023-02-11T14:14:31.942Z,101285.60
2023-02-11T14:17:35.764Z,101295.00
2023-02-11T14:20:44.682Z,101301.20
2023-02-11T14:23:29.498Z,101309.60
2023-02-11T14:26:34.697Z,101309.40
2023-02-11T14:29:23.626Z,101305.00
2023-02-11T14:32:10.915Z,101300.40
2023-02-11T14:35:02.285Z,101309.20
2023-02-11T14:37:50.779Z,101319.20
2023-02-11T14:40:33.189Z,101327.20
2023-02-11T14:43:16.188Z,101324.60
2023-02-11T14:45:58.032Z,101336.80
2023-02-11T14:48:38.179Z,101335.60
2023-02-11T14:51:17.509Z,101339.20
2023-02-11T14:53:57.935Z,101347.00
2023-02-11T14:56:34.529Z,101336.60
2023-02-11T14:59:20.819Z,101331.80
2023-02-11T15:01:56.656Z,101335.60
2023-02-11T15:04:36.259Z,101343.60
2023-02-11T15:07:14.973Z,101347.80
2023-02-11T15:09:52.955Z,101341.00
2023-02-11T15:12:30.255Z,101342.20
2023-02-11T15:15:05.707Z,101333.60
2023-02-11T15:17:40.224Z,101334.00
2023-02-11T15:20:27.179Z,101337.40
2023-02-11T15:23:05.692Z,101345.20
2023-02-11T15:25:52.990Z,101341.40
2023-02-11T15:28:30.675Z,101346.20
2023-02-11T15:31:16.642Z,101352.60
2023-02-11T15:33:51.402Z,101341.80
2023-02-11T15:36:33.178Z,101348.80
2023-02-11T15:39:31.626Z,101354.60
2023-02-11T15:42:28.194Z,101362.20
2023-02-11T15:45:29.138Z,101363.20
2023-02-11T15:48:11.474Z,101364.80
2023-02-11T15:50:53.542Z,101370.60
2023-02-11T15:53:34.595Z,101376.40
2023-02-11T15:56:18.665Z,101384.60
2023-02-11T15:58:55.965Z,101380.80
2023-02-11T16:01:40.392Z,101377.00
2023-02-11T16:04:23.685Z,101367.80
2023-02-11T16:06:58.977Z,101375.60
2023-02-11T16:09:39.895Z,101382.40
2023-02-11T16:12:29.383Z,101381.60
2023-02-11T16:15:40.343Z,101381.80
2023-02-11T16:18:38.417Z,101384.00
2023-02-11T16:21:22.458Z,101389.00
2023-02-11T16:23:59.935Z,101388.00
2023-02-11T16:26:39.293Z,101392.00
2023-02-11T16:29:20.326Z,101396.00
2023-02-11T16:31:56.150Z,101391.60
2023-02-11T16:34:30.670Z,101397.60
2023-02-11T16:37:08.938Z,101395.60
2023-02-11T16:39:43.267Z,101393.80
2023-02-11T16:42:18.004Z,101400.00
2023-02-11T16:44:52.339Z,101408.40
2023-02-11T16:47:31.198Z,101414.00
2023-02-11T16:50:09.581Z,101427.40
2023-02-11T16:52:46.517Z,101428.60
2023-02-11T16:55:22.088Z,101441.80
2023-02-11T16:57:56.450Z,101439.60
2023-02-11T17:00:32.035Z,101442.40
2023-02-11T17:03:09.391Z,101446.00
2023-02-11T17:05:54.923Z,101449.60
2023-02-11T17:08:30.139Z,101451.40
2023-02-11T17:11:04.130Z,101455.40
2023-02-11T17:13:39.769Z,101454.00
2023-02-11T17:16:22.705Z,101456.80
2023-02-11T17:18:56.566Z,101456.20
2023-02-11T17:21:32.123Z,101456.80
2023-02-11T17:24:06.557Z,101462.20
2023-02-11T17:26:40.777Z,101470.00
2023-02-11T17:29:17.789Z,101470.60
2023-02-11T17:31:52.696Z,101470.00
2023-02-11T17:34:29.292Z,101473.20
2023-02-11T17:37:09.415Z,101474.80
2023-02-11T17:39:44.835Z,101479.00
2023-02-11T17:42:20.161Z,101479.00
2023-02-11T17:44:54.438Z,101482.80
2023-02-11T17:47:28.558Z,101483.60
2023-02-11T17:50:03.175Z,101483.80
2023-02-11T17:52:38.003Z,101485.60
2023-02-11T17:55:12.676Z,101491.80
2023-02-11T17:57:46.787Z,101485.60
2023-02-11T18:00:24.837Z,101478.80
2023-02-11T18:03:02.793Z,101485.60
2023-02-11T18:05:40.254Z,101490.20
2023-02-11T18:08:14.288Z,101485.80
2023-02-11T18:10:48.140Z,101491.60
2023-02-11T18:13:23.092Z,101496.20
2023-02-11T18:15:57.488Z,101497.00
2023-02-11T18:18:32.024Z,101495.60
2023-02-11T18:21:08.995Z,101499.40
2023-02-11T18:23:42.839Z,101499.20
2023-02-11T18:26:19.490Z,101501.60
2023-02-11T18:28:53.952Z,101500.20
2023-02-11T18:31:28.429Z,101495.40
2023-02-11T18:34:02.630Z,101489.80
2023-02-11T18:36:37.150Z,101494.00
2023-02-11T18:39:11.199Z,101500.80
2023-02-11T18:41:45.319Z,101496.20
2023-02-11T18:44:22.468Z,101499.60
2023-02-11T18:46:57.622Z,101508.40
2023-02-11T18:49:33.148Z,101506.00
2023-02-11T18:52:08.044Z,101511.60
2023-02-11T18:54:42.335Z,101518.20
2023-02-11T18:57:16.445Z,101520.60
2023-02-11T18:59:51.000Z,101529.00
2023-02-11T19:02:25.188Z,101535.40
2023-02-11T19:05:00.443Z,101528.20
2023-02-11T19:07:34.493Z,101535.00
2023-02-11T19:10:10.486Z,101544.00
2023-02-11T19:12:44.606Z,101543.40
2023-02-11T19:15:19.136Z,101549.00
2023-02-11T19:17:53.307Z,101549.80
2023-02-11T19:20:27.463Z,101550.00
2023-02-11T19:23:02.034Z,101548.40
2023-02-11T19:25:36.196Z,101552.60
2023-02-11T19:28:10.516Z,101553.80
2023-02-11T19:30:44.825Z,101554.00
2023-02-11T19:33:19.065Z,101554.20
2023-02-11T19:35:53.532Z,101555.80
2023-02-11T19:38:28.543Z,101551.40
2023-02-11T19:41:02.890Z,101560.00
2023-02-11T19:52:12.218Z,101564.20
2023-02-11T19:54:46.262Z,101565.60
2023-02-11T19:57:20.577Z,101567.80
2023-02-11T19:59:57.101Z,101565.20
2023-02-11T20:02:32.392Z,101567.00
2023-02-11T20:05:07.108Z,101568.40
2023-02-11T20:07:41.115Z,101578.00
2023-02-11T20:10:16.041Z,101578.60
2023-02-11T20:12:50.255Z,101577.80
2023-02-11T20:15:24.685Z,101581.20
2023-02-11T20:17:58.770Z,101588.80
2023-02-11T20:20:32.884Z,101588.60
2023-02-11T20:23:06.917Z,101591.00
2023-02-11T20:25:43.362Z,101594.40
2023-02-11T20:28:17.334Z,101593.40
2023-02-11T20:31:00.270Z,101593.80
2023-02-11T20:33:36.260Z,101601.40
2023-02-11T20:36:16.282Z,101603.00
2023-02-11T20:38:50.917Z,101611.00
2023-02-11T20:41:28.793Z,101611.80
2023-02-11T20:44:05.978Z,101615.40
2023-02-11T20:46:46.118Z,101620.20
2023-02-11T20:49:23.022Z,101621.20
2023-02-11T20:51:58.578Z,101628.60
2023-02-11T20:54:32.697Z,101632.00
2023-02-11T20:57:07.253Z,101633.20
2023-02-11T20:59:41.349Z,101637.20
2023-02-11T21:02:15.594Z,101639.40
2023-02-11T21:04:49.563Z,101640.80
2023-02-11T21:07:23.575Z,101646.00
2023-02-11T21:09:57.669Z,101648.80
2023-02-11T21:12:32.025Z,101658.80
2023-02-11T21:15:09.934Z,101670.60
2023-02-11T21:17:43.996Z,101672.20
2023-02-11T21:20:18.424Z,101676.80
2023-02-11T21:22:52.680Z,101674.60
2023-02-11T21:25:26.960Z,101677.00
2023-02-11T21:28:01.009Z,101676.60
2023-02-11T21:30:35.155Z,101681.80
2023-02-11T21:33:09.506Z,101682.60
2023-02-11T21:35:43.591Z,101685.80
2023-02-11T21:38:18.002Z,101689.20
2023-02-11T21:40:52.583Z,101692.80
2023-02-11T21:43:27.110Z,101700.80
2023-02-11T21:46:01.177Z,101703.20
2023-02-11T21:48:35.438Z,101701.60
2023-02-11T21:51:14.100Z,101709.60
2023-02-11T21:53:48.389Z,101713.40
2023-02-11T21:56:23.480Z,101709.80
2023-02-11T21:58:59.484Z,101714.60
2023-02-11T22:01:37.047Z,101719.60
2023-02-11T22:04:12.457Z,101722.40
2023-02-11T22:06:48.699Z,101730.40
2023-02-11T22:09:22.798Z,101731.60
2023-02-11T22:11:57.139Z,101731.00
2023-02-11T22:14:32.380Z,101731.60
2023-02-11T22:17:06.818Z,101734.60
2023-02-11T22:19:41.147Z,101745.80
2023-02-11T22:22:18.368Z,101751.40
2023-02-11T22:24:54.244Z,101755.60
2023-02-11T22:27:28.156Z,101753.60
2023-02-11T22:30:02.875Z,101758.40
2023-02-11T22:32:37.506Z,101760.20
2023-02-11T22:35:12.134Z,101762.80
2023-02-11T22:37:46.478Z,101768.20
2023-02-11T22:40:20.952Z,101771.40
2023-02-11T22:42:54.893Z,101770.00
2023-02-11T22:45:29.033Z,101785.60
2023-02-11T22:48:03.706Z,101780.00
2023-02-11T22:50:38.770Z,101776.00
2023-02-11T22:53:12.673Z,101790.40
2023-02-11T22:55:46.616Z,101782.60
2023-02-11T22:58:20.762Z,101785.60
2023-02-11T23:00:54.791Z,101785.00
2023-02-11T23:03:29.385Z,101780.40
2023-02-11T23:06:04.270Z,101783.20
2023-02-11T23:08:43.054Z,101788.40
2023-02-11T23:11:21.135Z,101796.60
2023-02-11T23:13:56.715Z,101786.20
2023-02-11T23:16:34.533Z,101789.80
2023-02-11T23:19:12.375Z,101798.20
2023-02-11T23:21:47.850Z,101789.80
2023-02-11T23:24:21.691Z,101794.60
2023-02-11T23:26:55.818Z,101790.60
2023-02-11T23:29:29.986Z,101797.60
2023-02-11T23:32:04.108Z,101803.60
2023-02-11T23:34:38.525Z,101800.80
2023-02-11T23:37:12.730Z,101809.60
2023-02-11T23:39:46.958Z,101814.80
2023-02-11T23:42:21.153Z,101812.60
2023-02-11T23:44:55.076Z,101815.00
2023-02-11T23:47:28.796Z,101818.40
2023-02-11T23:50:02.848Z,101822.60
2023-02-11T23:52:37.010Z,101822.00
2023-02-11T23:55:12.083Z,101823.80
2023-02-11T23:57:46.150Z,101831.80
